Time;durP1;ratioP1;P1;durP2;ratioP2;P2;SDS_P1;SDS_P2;PMS_P1;PMS_P2;Temp;Humidity;BMP_temperature;BMP_pressure;BME280_temperature;BME280_humidity;BME280_pressure;Samples;Min_cycle;Max_cycle;Signal;HPM_P1;HPM_P2
2022/03/07 00:01:26;;;;;;;47.73;26.12;;;;;;;-0.12;53.52;100780.44;1693036;84;28096;-72
2022/03/07 00:03:55;;;;;;;48.98;26.45;;;;;;;-0.13;53.62;100781.46;1692974;84;25741;-73
2022/03/07 00:06:23;;;;;;;52.85;26.23;;;;;;;-0.13;53.81;100772.16;1692617;84;25411;-71
2022/03/07 00:08:50;;;;;;;47.25;26.57;;;;;;;-0.13;53.82;100777.47;1693030;84;25621;-72
2022/03/07 00:11:17;;;;;;;45.73;25.62;;;;;;;-0.13;53.98;100780.66;1693073;84;25684;-71
2022/03/07 00:13:44;;;;;;;44.53;24.90;;;;;;;-0.14;54.06;100779.83;1674224;84;27240;-71
2022/03/07 00:16:11;;;;;;;41.83;24.72;;;;;;;-0.15;54.15;100774.23;1692968;84;25627;-71
2022/03/07 00:18:38;;;;;;;48.38;25.60;;;;;;;-0.16;54.27;100767.80;1693122;84;25471;-71
2022/03/07 00:21:06;;;;;;;48.38;25.52;;;;;;;-0.15;54.32;100768.08;1693094;84;25606;-71
2022/03/07 00:23:34;;;;;;;46.90;25.68;;;;;;;-0.16;54.42;100770.47;1674965;84;25408;-70
2022/03/07 00:26:00;;;;;;;48.33;25.30;;;;;;;-0.15;54.33;100763.59;1693383;84;27333;-71
2022/03/07 00:28:26;;;;;;;47.13;27.02;;;;;;;-0.15;54.44;100766.75;1675803;84;25703;-71
2022/03/07 00:30:53;;;;;;;48.78;26.15;;;;;;;-0.15;54.36;100764.09;1697822;84;25440;-70
2022/03/07 00:33:19;;;;;;;48.02;25.90;;;;;;;-0.15;54.24;100772.07;1697156;84;25640;-71
2022/03/07 00:35:45;;;;;;;49.38;25.55;;;;;;;-0.15;54.28;100771.58;1696876;84;25480;-71
2022/03/07 00:38:12;;;;;;;42.75;23.27;;;;;;;-0.14;54.33;100770.52;1697288;84;27379;-71
2022/03/07 00:40:38;;;;;;;42.55;22.17;;;;;;;-0.15;54.29;100774.73;1697175;84;25622;-71
2022/03/07 00:43:09;;;;;;;40.23;22.02;;;;;;;-0.14;54.34;100776.36;1678165;84;25721;-71
2022/03/07 00:45:36;;;;;;;38.13;22.25;;;;;;;-0.14;54.23;100775.03;1678317;84;25599;-71
2022/03/07 00:48:03;;;;;;;39.18;22.52;;;;;;;-0.14;54.14;100772.37;1697142;84;25700;-71
2022/03/07 00:50:29;;;;;;;41.83;21.12;;;;;;;-0.13;54.11;100768.16;1681477;85;27894;-71
2022/03/07 00:52:56;;;;;;;40.00;21.82;;;;;;;-0.12;54.41;100761.82;1679139;85;25796;-71
2022/03/07 00:55:22;;;;;;;38.48;21.73;;;;;;;-0.12;54.40;100758.33;1706872;83;25630;-71
2022/03/07 00:57:49;;;;;;;48.20;26.68;;;;;;;-0.13;54.42;100753.54;1706771;84;25686;-71
2022/03/07 01:00:15;;;;;;;51.10;29.42;;;;;;;-0.12;54.21;100750.34;1706785;84;25458;-72
2022/03/07 01:02:42;;;;;;;43.80;23.22;;;;;;;-0.12;54.22;100743.70;1706953;84;27348;-72
2022/03/07 01:05:08;;;;;;;56.42;31.82;;;;;;;-0.10;54.30;100750.93;1706541;84;25529;-72
2022/03/07 01:07:35;;;;;;;48.05;28.50;;;;;;;-0.12;54.47;100752.52;1683344;84;25458;-72
2022/03/07 01:10:02;;;;;;;44.80;24.77;;;;;;;-0.12;54.67;100746.36;1706849;84;26245;-71
2022/03/07 01:12:28;;;;;;;44.63;22.48;;;;;;;-0.12;54.80;100749.86;1669289;84;25682;-71
2022/03/07 01:14:54;;;;;;;40.50;23.42;;;;;;;-0.13;54.80;100748.75;1706885;84;27879;-72
2022/03/07 01:17:21;;;;;;;65.75;35.55;;;;;;;-0.14;54.80;100743.92;1682795;84;25731;-72
2022/03/07 01:19:47;;;;;;;54.88;29.18;;;;;;;-0.14;54.68;100733.29;1706836;84;25550;-71
2022/03/07 01:22:14;;;;;;;55.25;31.70;;;;;;;-0.14;54.79;100737.81;1702169;82;25479;-72
2022/03/07 01:24:40;;;;;;;53.87;28.75;;;;;;;-0.16;54.90;100734.05;1732382;82;25777;-72
2022/03/07 01:27:06;;;;;;;46.08;24.80;;;;;;;-0.15;54.79;100737.00;1732133;82;27344;-72
2022/03/07 01:29:33;;;;;;;44.33;23.80;;;;;;;-0.14;54.82;100731.16;1730590;82;25434;-73
2022/03/07 01:31:59;;;;;;;40.43;22.73;;;;;;;-0.14;54.84;100733.29;1729346;82;25415;-72
2022/03/07 01:34:25;;;;;;;49.20;27.62;;;;;;;-0.13;54.84;100735.45;1729273;83;25737;-72
2022/03/07 01:36:52;;;;;;;43.15;23.12;;;;;;;-0.13;54.87;100735.45;1726321;82;25643;-73
2022/03/07 01:39:20;;;;;;;45.83;22.82;;;;;;;-0.15;54.87;100729.03;1626821;86;27219;-72
2022/03/07 01:41:46;;;;;;;48.25;24.07;;;;;;;-0.14;55.02;100719.20;1725872;83;25706;-72
2022/03/07 01:44:23;;;;;;;45.78;24.05;;;;;;;-0.16;55.05;100714.09;1663316;86;25525;-72
2022/03/07 01:46:51;;;;;;;41.88;22.93;;;;;;;-0.16;54.98;100718.09;1725313;83;25687;-72
2022/03/07 01:49:18;;;;;;;43.73;22.27;;;;;;;-0.15;55.00;100713.08;1663179;86;25820;-72
2022/03/07 01:51:47;;;;;;;37.48;19.77;;;;;;;-0.16;55.23;100719.95;1726153;83;28120;-72
2022/03/07 01:54:16;;;;;;;36.20;21.68;;;;;;;-0.16;55.28;100725.27;1663227;86;25609;-72
2022/03/07 01:56:47;;;;;;;37.63;19.90;;;;;;;-0.16;55.18;100722.61;1726093;83;25639;-71
2022/03/07 01:59:18;;;;;;;34.50;20.35;;;;;;;-0.15;55.27;100730.85;1663239;86;25692;-71
2022/03/07 02:01:45;;;;;;;31.25;18.55;;;;;;;-0.15;55.27;100714.41;1728299;82;25688;-71
2022/03/07 02:04:13;;;;;;;33.73;19.85;;;;;;;-0.14;55.29;100717.34;1702793;82;27830;-71
2022/03/07 02:06:40;;;;;;;33.53;17.95;;;;;;;-0.15;55.25;100714.90;1728981;83;25740;-72
2022/03/07 02:09:09;;;;;;;30.05;17.52;;;;;;;-0.14;55.26;100721.33;1729025;82;26242;-72
2022/03/07 02:11:36;;;;;;;26.17;15.75;;;;;;;-0.16;55.19;100718.61;1729923;82;25789;-72
2022/03/07 02:14:15;;;;;;;26.50;14.85;;;;;;;-0.19;55.14;100713.22;1729714;83;25406;-71
2022/03/07 02:16:44;;;;;;;26.80;15.30;;;;;;;-0.21;55.18;100711.31;1729518;83;29236;-71
2022/03/07 02:19:11;;;;;;;29.15;15.83;;;;;;;-0.23;55.14;100703.55;1729897;82;25641;-71
2022/03/07 02:21:42;;;;;;;28.27;17.42;;;;;;;-0.23;55.13;100704.89;1729589;83;25659;-72
2022/03/07 02:24:09;;;;;;;30.08;16.32;;;;;;;-0.23;55.14;100696.91;1729877;82;25644;-72
2022/03/07 02:26:35;;;;;;;29.82;17.05;;;;;;;-0.23;55.23;100689.46;1729852;83;25609;-71
2022/03/07 02:29:02;;;;;;;23.10;15.38;;;;;;;-0.23;55.17;100690.80;1729710;83;27397;-72
2022/03/07 02:31:29;;;;;;;25.97;14.40;;;;;;;-0.22;55.19;100695.09;1729740;82;25402;-72
2022/03/07 02:33:56;;;;;;;29.85;15.48;;;;;;;-0.23;55.20;100690.27;1729811;83;25553;-72
2022/03/07 02:36:23;;;;;;;27.60;16.05;;;;;;;-0.21;55.22;100691.37;1729787;83;25681;-72
2022/03/07 02:38:49;;;;;;;27.87;15.95;;;;;;;-0.22;55.21;100690.56;1729730;83;25553;-72
2022/03/07 02:41:15;;;;;;;31.82;15.78;;;;;;;-0.23;55.19;100680.95;1729862;82;27329;-72
2022/03/07 02:43:42;;;;;;;24.43;15.15;;;;;;;-0.22;55.17;100685.78;1729750;82;25606;-72
2022/03/07 02:46:09;;;;;;;27.98;15.40;;;;;;;-0.23;55.20;100681.48;1729848;82;25536;-72
2022/03/07 02:48:36;;;;;;;20.85;12.53;;;;;;;-0.23;55.25;100671.66;1729770;83;25624;-72
2022/03/07 02:51:02;;;;;;;20.85;12.88;;;;;;;-0.22;55.18;100679.93;1729843;82;25605;-72
2022/03/07 02:53:29;;;;;;;23.42;13.40;;;;;;;-0.21;55.21;100682.86;1729784;82;27360;-71
2022/03/07 02:55:56;;;;;;;22.07;12.63;;;;;;;-0.19;55.28;100681.31;1703062;82;25483;-72
2022/03/07 02:58:22;;;;;;;18.95;12.15;;;;;;;-0.18;55.38;100674.97;1729172;83;25592;-72
2022/03/07 03:00:49;;;;;;;21.65;12.18;;;;;;;-0.18;55.33;100675.50;1729779;82;25578;-72
2022/03/07 03:03:15;;;;;;;21.35;12.37;;;;;;;-0.18;55.46;100674.16;1729819;82;25463;-71
2022/03/07 03:05:42;;;;;;;20.23;13.88;;;;;;;-0.17;55.40;100677.92;1729554;82;27502;-72
2022/03/07 03:08:08;;;;;;;20.23;12.90;;;;;;;-0.17;55.49;100677.09;1729717;82;25560;-72
2022/03/07 03:10:36;;;;;;;19.98;12.78;;;;;;;-0.16;55.44;100669.42;1729811;82;25412;-73
2022/03/07 03:13:03;;;;;;;19.90;12.75;;;;;;;-0.16;55.54;100674.74;1729692;82;25549;-72
2022/03/07 03:15:29;;;;;;;18.82;12.75;;;;;;;-0.16;55.50;100676.88;1729759;82;25608;-72
2022/03/07 03:17:56;;;;;;;19.55;12.90;;;;;;;-0.15;55.60;100675.02;1729769;82;27415;-72
2022/03/07 03:20:22;;;;;;;20.37;12.43;;;;;;;-0.16;55.65;100675.55;1729677;83;25602;-72
2022/03/07 03:22:49;;;;;;;21.70;13.13;;;;;;;-0.14;55.72;100675.32;1730848;82;25410;-72
2022/03/07 03:25:15;;;;;;;21.02;13.32;;;;;;;-0.14;55.71;100679.30;1731136;82;25899;-72
2022/03/07 03:27:43;;;;;;;20.82;12.60;;;;;;;-0.16;55.77;100679.53;1729953;82;25452;-73
2022/03/07 03:30:13;;;;;;;19.90;12.63;;;;;;;-0.15;55.78;100681.66;1724827;82;27333;-73
2022/03/07 03:32:39;;;;;;;22.45;13.38;;;;;;;-0.18;55.93;100678.95;1720405;82;25377;-73
2022/03/07 03:35:08;;;;;;;20.32;12.90;;;;;;;-0.18;56.00;100680.28;1720549;82;25545;-73
2022/03/07 03:37:35;;;;;;;21.62;12.85;;;;;;;-0.18;56.08;100680.28;1720486;83;25642;-73
2022/03/07 03:40:04;;;;;;;17.12;11.88;;;;;;;-0.20;56.12;100672.53;1720561;83;25604;-73
2022/03/07 03:42:30;;;;;;;18.90;11.48;;;;;;;-0.20;56.23;100675.19;1720570;82;27338;-73
2022/03/07 03:44:57;;;;;;;19.40;11.65;;;;;;;-0.22;56.25;100672.48;1720404;82;25512;-71
2022/03/07 03:47:23;;;;;;;16.60;11.70;;;;;;;-0.25;56.28;100663.63;1720585;83;25447;-72
2022/03/07 03:49:49;;;;;;;15.85;10.82;;;;;;;-0.25;56.38;100672.41;1720446;82;25691;-72
2022/03/07 03:52:16;;;;;;;16.50;11.00;;;;;;;-0.27;56.42;100664.38;1720523;82;25671;-72
2022/03/07 03:54:43;;;;;;;16.70;10.18;;;;;;;-0.28;56.52;100660.09;1720412;82;27507;-72
2022/03/07 03:57:09;;;;;;;18.70;11.33;;;;;;;-0.29;56.60;100661.12;1720384;82;25633;-72
2022/03/07 03:59:36;;;;;;;17.65;10.82;;;;;;;-0.32;56.66;100661.06;1720458;82;25464;-72
2022/03/07 04:02:04;;;;;;;18.95;11.78;;;;;;;-0.35;56.67;100655.40;1720391;83;26171;-72
2022/03/07 04:04:31;;;;;;;23.70;12.70;;;;;;;-0.41;56.71;100652.61;1702007;83;25502;-72
2022/03/07 04:06:57;;;;;;;17.45;12.47;;;;;;;-0.44;56.77;100655.72;1701846;83;27876;-72
2022/03/07 04:09:23;;;;;;;22.75;14.20;;;;;;;-0.47;56.93;100655.36;1720352;82;25790;-73
2022/03/07 04:11:50;;;;;;;22.48;13.72;;;;;;;-0.53;57.11;100659.71;1720450;83;25387;-73
2022/03/07 04:14:17;;;;;;;22.95;14.53;;;;;;;-0.57;57.23;100655.38;1720388;83;25645;-73
2022/03/07 04:16:44;;;;;;;24.60;14.75;;;;;;;-0.60;57.35;100657.67;1720455;83;25414;-73
2022/03/07 04:19:12;;;;;;;22.77;13.80;;;;;;;-0.64;57.39;100658.65;1720423;83;27335;-72
2022/03/07 04:21:40;;;;;;;20.27;13.43;;;;;;;-0.67;57.59;100667.59;1720307;82;25629;-72
2022/03/07 04:24:08;;;;;;;20.60;12.15;;;;;;;-0.71;57.83;100662.45;1720413;82;25648;-72
2022/03/07 04:26:35;;;;;;;19.60;11.75;;;;;;;-0.74;57.97;100663.69;1701932;83;26166;-71
2022/03/07 04:29:05;;;;;;;23.77;11.55;;;;;;;-0.77;58.08;100667.63;1701511;83;25565;-71
2022/03/07 04:31:29;;;;;;;17.60;11.73;;;;;;;-0.81;58.30;100661.12;1705231;82;27836;-72
2022/03/07 04:33:56;;;;;;;16.07;11.03;;;;;;;-0.83;58.35;100659.20;1727894;82;25532;-72
2022/03/07 04:36:23;;;;;;;18.82;11.20;;;;;;;-0.84;58.44;100658.10;1728266;82;25392;-72
2022/03/07 04:38:49;;;;;;;18.85;11.22;;;;;;;-0.85;58.68;100663.94;1728169;82;25603;-72
2022/03/07 04:41:15;;;;;;;17.27;11.18;;;;;;;-0.86;58.69;100662.30;1728259;82;25375;-72
2022/03/07 04:43:42;;;;;;;18.20;10.45;;;;;;;-0.88;58.81;100661.72;1728281;82;27314;-72
2022/03/07 04:46:10;;;;;;;14.95;10.80;;;;;;;-0.91;58.81;100666.16;1728096;82;25582;-72
2022/03/07 04:48:37;;;;;;;22.00;11.95;;;;;;;-0.95;59.08;100663.13;1728169;82;25636;-72
2022/03/07 04:51:03;;;;;;;22.25;11.90;;;;;;;-0.95;59.21;100661.00;1728282;82;25541;-72
2022/03/07 04:53:30;;;;;;;19.42;12.88;;;;;;;-0.98;59.29;100659.59;1728277;82;25407;-72
2022/03/07 04:55:57;;;;;;;22.67;13.53;;;;;;;-1.00;59.50;100656.36;1728185;83;27494;-72
2022/03/07 04:58:24;;;;;;;20.97;12.50;;;;;;;-1.02;59.53;100656.27;1728098;82;25741;-72
2022/03/07 05:00:52;;;;;;;23.00;12.93;;;;;;;-1.04;59.51;100658.34;1728288;82;25450;-72
2022/03/07 05:03:18;;;;;;;24.82;13.80;;;;;;;-1.08;59.55;100654.52;1728090;82;26154;-72
2022/03/07 05:05:45;;;;;;;23.60;13.55;;;;;;;-1.11;59.69;100653.63;1728112;82;25601;-71
2022/03/07 05:08:11;;;;;;;26.05;14.70;;;;;;;-1.18;59.54;100645.22;1711327;83;27343;-71
2022/03/07 05:10:37;;;;;;;27.22;16.02;;;;;;;-1.21;59.40;100645.69;1727525;82;25592;-72
2022/03/07 05:13:04;;;;;;;30.02;18.37;;;;;;;-1.27;59.67;100637.27;1728240;82;25596;-72
2022/03/07 05:15:30;;;;;;;37.35;20.43;;;;;;;-1.30;59.72;100635.05;1728222;82;26325;-72
2022/03/07 05:17:57;;;;;;;28.73;19.42;;;;;;;-1.35;59.97;100630.41;1728185;83;25451;-72
2022/03/07 05:20:25;;;;;;;30.97;17.50;;;;;;;-1.39;60.01;100635.06;1711405;82;27219;-72
2022/03/07 05:22:53;;;;;;;28.92;17.42;;;;;;;-1.44;59.90;100633.06;1727900;82;25384;-72
2022/03/07 05:25:20;;;;;;;24.80;15.20;;;;;;;-1.47;60.04;100626.07;1728160;83;25451;-72
2022/03/07 05:27:48;;;;;;;24.07;14.50;;;;;;;-1.51;60.24;100633.14;1737263;82;25665;-72
2022/03/07 05:30:19;;;;;;;25.57;14.40;;;;;;;-1.54;60.66;100631.45;1734593;82;25580;-72
2022/03/07 05:32:50;;;;;;;28.65;15.03;;;;;;;-1.57;60.75;100635.33;1731750;82;27324;-72
2022/03/07 05:35:18;;;;;;;26.65;15.05;;;;;;;-1.59;60.61;100636.07;1731522;82;25649;-72
2022/03/07 05:37:45;;;;;;;27.30;15.53;;;;;;;-1.62;60.41;100631.73;1731737;82;25696;-72
2022/03/07 05:40:13;;;;;;;25.68;14.75;;;;;;;-1.64;61.08;100634.59;1731233;82;26202;-72
2022/03/07 05:42:41;;;;;;;26.12;14.80;;;;;;;-1.66;61.36;100636.66;1707723;82;25430;-72
2022/03/07 05:45:10;;;;;;;27.17;14.35;;;;;;;-1.67;61.49;100630.25;1731690;82;27348;-72
2022/03/07 05:47:38;;;;;;;29.30;14.60;;;;;;;-1.67;61.78;100628.39;1731903;82;32012;-72
2022/03/07 05:50:06;;;;;;;24.55;14.40;;;;;;;-1.65;61.86;100628.18;1731818;82;25587;-72
2022/03/07 05:52:33;;;;;;;25.75;15.03;;;;;;;-1.62;62.04;100637.03;1728130;82;25603;-73
2022/03/07 05:55:00;;;;;;;27.37;15.43;;;;;;;-1.59;62.29;100638.72;1706435;83;25223;-71
2022/03/07 05:57:26;;;;;;;29.85;15.13;;;;;;;-1.55;62.59;100626.66;1724958;83;27487;-71
2022/03/07 05:59:53;;;;;;;22.70;14.13;;;;;;;-1.46;62.91;100628.50;1725514;82;25526;-72
2022/03/07 06:02:19;;;;;;;25.32;15.20;;;;;;;-1.38;62.95;100634.02;1725669;82;25530;-72
2022/03/07 06:04:46;;;;;;;28.95;15.88;;;;;;;-1.33;63.02;100631.52;1725503;82;26274;-72
2022/03/07 06:07:13;;;;;;;28.85;15.72;;;;;;;-1.22;63.12;100642.72;1725138;82;25509;-72
2022/03/07 06:09:40;;;;;;;32.55;16.65;;;;;;;-1.12;63.27;100644.87;1706413;82;27351;-72
2022/03/07 06:12:08;;;;;;;26.70;15.90;;;;;;;-1.03;63.46;100648.02;1725637;82;25608;-72
2022/03/07 06:14:35;;;;;;;33.58;16.48;;;;;;;-0.90;63.62;100650.52;1724993;83;25620;-72
2022/03/07 06:17:01;;;;;;;29.23;16.50;;;;;;;-0.72;63.80;100647.53;1725435;82;25655;-72
2022/03/07 06:19:28;;;;;;;30.32;17.17;;;;;;;-0.54;63.94;100644.02;1725423;82;25470;-72
2022/03/07 06:21:55;;;;;;;28.60;16.27;;;;;;;-0.36;63.97;100642.60;1725281;83;27971;-72
2022/03/07 06:24:22;;;;;;;33.67;18.77;;;;;;;-0.18;63.84;100636.41;1725241;82;25380;-72
2022/03/07 06:26:48;;;;;;;30.05;18.73;;;;;;;0.01;63.57;100643.77;1725124;82;25569;-72
2022/03/07 06:29:15;;;;;;;34.78;18.73;;;;;;;0.10;63.11;100638.42;1725470;82;25676;-72
2022/03/07 06:31:41;;;;;;;34.65;18.82;;;;;;;0.20;62.86;100650.33;1731666;81;25796;-72
2022/03/07 06:34:08;;;;;;;33.35;20.05;;;;;;;0.27;62.82;100644.36;1743839;81;27359;-72
2022/03/07 06:36:34;;;;;;;32.73;20.55;;;;;;;0.36;62.69;100651.77;1764628;81;25652;-73
2022/03/07 06:39:00;;;;;;;34.83;19.60;;;;;;;0.43;62.60;100646.33;1747629;81;25441;-71
2022/03/07 06:41:27;;;;;;;31.40;18.27;;;;;;;0.49;62.40;100648.05;1702391;83;26247;-70
2022/03/07 06:43:54;;;;;;;30.85;17.57;;;;;;;0.56;62.42;100651.91;1715608;82;25746;-70
2022/03/07 06:46:20;;;;;;;30.92;17.42;;;;;;;0.66;62.54;100656.12;1721631;83;27329;-70
2022/03/07 06:48:47;;;;;;;24.10;16.20;;;;;;;0.73;62.41;100654.17;1721537;83;25360;-71
2022/03/07 06:51:13;;;;;;;44.33;16.27;;;;;;;0.83;62.46;100650.09;1721552;83;25753;-70
2022/03/07 06:53:40;;;;;;;26.02;15.70;;;;;;;0.93;62.26;100650.29;1702742;83;26344;-70
2022/03/07 06:56:06;;;;;;;22.17;15.20;;;;;;;1.04;62.08;100648.62;1721397;83;25686;-70
2022/03/07 06:58:33;;;;;;;24.70;15.35;;;;;;;1.13;61.72;100651.22;1721798;83;27408;-70
2022/03/07 07:00:59;;;;;;;23.12;14.53;;;;;;;1.17;61.53;100655.55;1721641;83;25732;-70
2022/03/07 07:03:26;;;;;;;23.38;13.75;;;;;;;1.25;61.39;100661.84;1721640;83;25747;-70
2022/03/07 07:05:52;;;;;;;29.12;16.07;;;;;;;1.35;61.49;100655.90;1721673;83;26397;-70
2022/03/07 07:08:19;;;;;;;32.33;18.67;;;;;;;1.54;61.38;100661.30;1702773;83;25812;-70
2022/03/07 07:10:45;;;;;;;27.10;15.98;;;;;;;1.73;61.78;100657.09;1721628;83;27344;-72
2022/03/07 07:13:14;;;;;;;24.00;13.88;;;;;;;1.93;61.25;100658.77;1721595;83;25689;-71
2022/03/07 07:15:43;;;;;;;21.45;13.93;;;;;;;2.08;60.97;100666.71;1721591;83;25748;-71
2022/03/07 07:18:09;;;;;;;25.92;14.10;;;;;;;2.17;60.61;100662.60;1721606;83;26210;-71
2022/03/07 07:20:36;;;;;;;22.15;13.20;;;;;;;2.28;60.15;100664.89;1721520;83;25786;-71
2022/03/07 07:23:03;;;;;;;23.92;13.13;;;;;;;2.26;59.52;100663.00;1721557;83;27343;-70
2022/03/07 07:25:29;;;;;;;22.48;14.47;;;;;;;2.32;59.76;100658.83;1721447;83;26305;-70
2022/03/07 07:27:56;;;;;;;24.00;14.23;;;;;;;2.39;59.44;100660.80;1721518;83;25631;-70
2022/03/07 07:30:22;;;;;;;19.30;12.63;;;;;;;2.48;59.27;100659.05;1721364;82;25696;-70
2022/03/07 07:32:49;;;;;;;23.73;13.60;;;;;;;2.64;59.07;100661.39;1723590;81;25638;-69
2022/03/07 07:35:16;;;;;;;22.15;13.10;;;;;;;2.76;58.93;100664.23;1733663;81;27273;-70
2022/03/07 07:37:43;;;;;;;22.98;13.43;;;;;;;3.05;59.24;100667.23;1719439;82;26269;-72
2022/03/07 07:40:10;;;;;;;20.57;12.40;;;;;;;3.46;59.41;100661.03;1719758;82;25680;-70
2022/03/07 07:42:37;;;;;;;22.30;12.30;;;;;;;3.88;58.93;100657.13;1721034;83;25734;-69
2022/03/07 07:45:04;;;;;;;17.42;9.93;;;;;;;4.49;58.59;100659.44;1699352;83;25791;-69
2022/03/07 07:47:30;;;;;;;16.55;9.73;;;;;;;5.26;58.20;100656.80;1699327;84;27309;-70
2022/03/07 07:49:57;;;;;;;13.85;8.03;;;;;;;6.11;56.48;100650.48;1699366;84;26308;-70
2022/03/07 07:52:23;;;;;;;17.07;8.25;;;;;;;6.98;54.77;100658.03;1699351;84;25702;-70
2022/03/07 07:54:50;;;;;;;14.75;8.00;;;;;;;7.66;53.23;100658.72;1699277;84;26182;-71
2022/03/07 07:57:17;;;;;;;13.50;7.42;;;;;;;8.16;51.61;100655.37;1699395;84;25680;-70
2022/03/07 07:59:43;;;;;;;11.93;7.47;;;;;;;8.63;50.53;100656.28;1699294;84;27279;-70
2022/03/07 08:02:10;;;;;;;13.95;7.95;;;;;;;9.07;49.63;100644.42;1699292;84;25663;-71
2022/03/07 08:04:36;;;;;;;11.20;6.47;;;;;;;9.57;47.83;100653.44;1681327;84;25707;-70
2022/03/07 08:07:03;;;;;;;12.30;6.58;;;;;;;9.95;47.84;100648.00;1699228;84;26365;-70
2022/03/07 08:09:30;;;;;;;8.68;5.53;;;;;;;10.65;47.85;100646.47;1699322;84;25790;-70
2022/03/07 08:11:56;;;;;;;14.98;7.92;;;;;;;11.10;46.34;100657.21;1699338;84;27378;-70
2022/03/07 08:14:23;;;;;;;12.03;7.85;;;;;;;11.20;45.67;100648.87;1699296;84;25676;-70
2022/03/07 08:16:50;;;;;;;9.05;5.65;;;;;;;11.31;44.38;100651.61;1699222;84;25695;-70
2022/03/07 08:19:17;;;;;;;9.40;5.72;;;;;;;10.83;43.90;100653.45;1699266;84;25669;-71
2022/03/07 08:21:43;;;;;;;12.28;5.65;;;;;;;10.15;43.01;100655.76;1699330;84;25709;-71
2022/03/07 08:24:11;;;;;;;10.38;5.70;;;;;;;9.46;43.23;100660.89;1699234;84;27294;-70
2022/03/07 08:26:38;;;;;;;8.23;6.58;;;;;;;9.18;44.31;100661.27;1699247;84;25628;-71
2022/03/07 08:29:05;;;;;;;11.93;5.87;;;;;;;9.23;44.17;100655.28;1699308;84;25718;-71
2022/03/07 08:31:32;;;;;;;9.38;6.05;;;;;;;9.39;44.43;100655.06;1699262;84;26335;-71
2022/03/07 08:33:58;;;;;;;10.38;6.50;;;;;;;9.20;44.15;100654.50;1699357;84;25807;-71
2022/03/07 08:36:25;;;;;;;12.07;6.90;;;;;;;9.08;44.37;100641.44;1699242;84;27340;-71
2022/03/07 08:38:51;;;;;;;11.70;6.90;;;;;;;9.02;44.16;100645.84;1699115;84;25703;-70
2022/03/07 08:41:17;;;;;;;35.33;17.32;;;;;;;9.21;44.90;100642.62;1699380;84;25819;-70
2022/03/07 08:43:45;;;;;;;16.17;7.58;;;;;;;9.44;45.16;100642.84;1699311;84;25616;-69
2022/03/07 08:46:12;;;;;;;8.80;6.05;;;;;;;9.52;43.97;100638.92;1699348;84;25727;-70
2022/03/07 08:48:39;;;;;;;23.10;5.95;;;;;;;9.12;43.58;100640.30;1699345;84;27430;-70
2022/03/07 08:51:05;;;;;;;11.60;5.83;;;;;;;8.81;43.75;100634.51;1699150;84;25798;-69
2022/03/07 08:53:31;;;;;;;9.83;4.87;;;;;;;8.48;43.74;100639.19;1699232;84;25702;-70
2022/03/07 08:55:58;;;;;;;11.15;4.78;;;;;;;8.18;43.76;100632.18;1698981;84;25733;-71
2022/03/07 08:58:24;;;;;;;9.43;5.20;;;;;;;7.86;44.05;100638.92;1698407;84;25783;-69
2022/03/07 09:00:51;;;;;;;8.35;5.42;;;;;;;7.70;44.80;100642.28;1699023;84;27431;-69
2022/03/07 09:03:17;;;;;;;9.65;5.30;;;;;;;7.76;45.14;100646.53;1699082;84;25710;-69
2022/03/07 09:05:44;;;;;;;8.30;5.80;;;;;;;7.76;45.09;100641.14;1698934;84;25732;-69
2022/03/07 09:08:10;;;;;;;7.72;5.42;;;;;;;7.85;45.26;100644.86;1698995;84;25742;-69
2022/03/07 09:10:37;;;;;;;8.80;5.40;;;;;;;7.83;44.90;100634.91;1699139;84;25721;-70
2022/03/07 09:13:04;;;;;;;9.25;5.92;;;;;;;7.75;45.10;100627.98;1698982;84;27424;-70
2022/03/07 09:15:30;;;;;;;8.65;6.03;;;;;;;7.66;45.16;100626.41;1699140;84;25628;-71
2022/03/07 09:17:57;;;;;;;9.40;5.55;;;;;;;7.55;45.34;100628.38;1699210;84;25749;-70
2022/03/07 09:20:24;;;;;;;12.70;5.78;;;;;;;7.58;45.68;100622.45;1698908;84;25732;-70
2022/03/07 09:22:50;;;;;;;9.78;6.47;;;;;;;7.56;45.58;100621.10;1699139;84;25690;-69
2022/03/07 09:25:17;;;;;;;11.38;6.08;;;;;;;7.47;45.47;100619.03;1680300;84;27913;-70
2022/03/07 09:27:44;;;;;;;15.18;7.08;;;;;;;7.45;45.66;100621.73;1698943;84;26133;-69
2022/03/07 09:30:12;;;;;;;9.50;5.92;;;;;;;7.32;45.59;100616.97;1699500;84;25719;-69
2022/03/07 09:32:39;;;;;;;12.55;6.47;;;;;;;7.18;45.78;100622.16;1701901;84;25907;-69
2022/03/07 09:35:06;;;;;;;16.05;8.25;;;;;;;7.03;45.88;100618.48;1702499;84;25609;-69
2022/03/07 09:37:34;;;;;;;16.93;8.70;;;;;;;6.90;46.19;100616.40;1700940;82;27304;-71
2022/03/07 09:40:00;;;;;;;18.05;7.33;;;;;;;6.80;46.20;100612.41;1702374;84;25730;-72
2022/03/07 09:42:28;;;;;;;12.90;7.72;;;;;;;6.69;46.54;100614.31;1701876;84;25687;-72
2022/03/07 09:44:54;;;;;;;11.78;6.65;;;;;;;6.64;46.82;100613.81;1702349;84;25810;-72
2022/03/07 09:47:22;;;;;;;9.80;7.47;;;;;;;6.65;46.90;100610.03;1701732;84;25767;-72
2022/03/07 09:49:51;;;;;;;17.73;8.13;;;;;;;6.67;47.13;100607.08;1701278;84;27340;-71
2022/03/07 09:52:18;;;;;;;12.18;6.50;;;;;;;6.70;47.59;100605.98;1702544;84;25722;-71
2022/03/07 09:54:44;;;;;;;13.28;5.92;;;;;;;6.97;47.39;100602.10;1702129;84;25717;-71
2022/03/07 09:57:11;;;;;;;9.73;6.65;;;;;;;7.29;47.63;100601.65;1701625;84;26286;-71
2022/03/07 09:59:37;;;;;;;18.12;7.12;;;;;;;7.62;47.27;100611.92;1701785;84;26357;-70
2022/03/07 10:02:14;;;;;;;16.40;7.50;;;;;;;7.93;46.91;100605.72;1700506;84;27328;-71
2022/03/07 10:04:45;;;;;;;12.18;6.60;;;;;;;8.31;46.68;100610.48;1699124;84;25716;-72
2022/03/07 10:07:13;;;;;;;12.45;7.78;;;;;;;8.86;46.67;100609.61;1702498;84;25719;-71
2022/03/07 10:09:41;;;;;;;13.93;7.05;;;;;;;9.30;45.15;100615.78;1702367;84;25708;-71
2022/03/07 10:12:09;;;;;;;15.50;6.83;;;;;;;9.52;44.82;100607.08;1702173;84;25806;-71
2022/03/07 10:14:44;;;;;;;12.90;8.13;;;;;;;10.91;46.23;100597.80;1669488;85;27396;-72
2022/03/07 10:17:26;;;;;;;11.65;7.40;;;;;;;12.37;43.57;100602.42;1666996;85;26035;-71
2022/03/07 10:19:56;;;;;;;17.10;8.00;;;;;;;12.94;41.63;100601.62;1646558;85;25755;-70
2022/03/07 10:22:26;;;;;;;;;;;;;;;13.00;40.84;100603.63;1671012;85;25830;-70
2022/03/07 10:25:04;;;;;;;14.38;7.30;;;;;;;13.71;40.18;100607.98;1669230;85;25757;-71
2022/03/07 10:27:37;;;;;;;24.25;11.57;;;;;;;13.76;40.27;100607.81;1669797;85;27400;-70
2022/03/07 10:30:11;;;;;;;11.50;7.53;;;;;;;15.01;39.57;100597.69;1669321;85;27164;-71
2022/03/07 10:32:38;;;;;;;15.28;7.15;;;;;;;16.28;37.66;100598.25;1662933;85;26543;-71
2022/03/07 10:35:08;;;;;;;14.40;6.85;;;;;;;17.02;34.97;100596.88;1662486;86;27671;-71
2022/03/07 10:37:38;;;;;;;54.42;50.48;;;;;;;17.52;35.46;100605.13;1662830;86;25810;-72
2022/03/07 10:40:20;;;;;;;14.18;7.92;;;;;;;18.41;35.08;100605.91;1695954;83;27345;-72
2022/03/07 10:42:48;;;;;;;10.28;5.92;;;;;;;19.31;34.43;100596.97;1701523;84;25751;-71
2022/03/07 10:45:16;;;;;;;9.25;5.47;;;;;;;19.73;32.45;100594.81;1701974;84;25679;-71
2022/03/07 10:47:43;;;;;;;10.45;6.20;;;;;;;20.28;32.44;100600.13;1701508;84;26383;-70
2022/03/07 10:50:10;;;;;;;11.45;7.78;;;;;;;20.97;32.12;100588.98;1702372;84;26400;-71
2022/03/07 10:52:41;;;;;;;28.38;26.17;;;;;;;21.76;30.88;100589.13;1702269;84;27364;-73
2022/03/07 10:55:12;;;;;;;10.70;6.10;;;;;;;22.08;30.06;100586.67;1702055;84;25906;-70
2022/03/07 10:57:42;;;;;;;9.28;6.58;;;;;;;22.20;29.37;100585.59;1701956;84;25754;-71
2022/03/07 11:00:13;;;;;;;9.40;6.65;;;;;;;22.26;28.59;100586.84;1701885;84;25719;-72
2022/03/07 11:02:48;;;;;;;10.50;6.80;;;;;;;22.31;28.42;100591.23;1702010;84;25666;-71
2022/03/07 11:05:17;;;;;;;9.23;6.37;;;;;;;22.12;28.15;100583.38;1702145;84;28058;-71
2022/03/07 11:07:47;;;;;;;11.65;6.53;;;;;;;22.28;28.13;100572.12;1702338;84;25739;-71
2022/03/07 11:10:16;;;;;;;9.40;6.33;;;;;;;22.73;27.83;100577.52;1701995;84;26322;-72
2022/03/07 11:12:44;;;;;;;10.35;7.00;;;;;;;22.96;27.07;100570.37;1675327;84;25712;-73
2022/03/07 11:15:18;;;;;;;10.25;7.33;;;;;;;23.05;27.06;100565.27;1702508;84;25353;-72